Time;durP1;ratioP1;P1;durP2;ratioP2;P2;SDS_P1;SDS_P2;PMS_P1;PMS_P2;Temp;Humidity;BMP_temperature;BMP_pressure;BME280_temperature;BME280_humidity;BME280_pressure;Samples;Min_cycle;Max_cycle;Signal;HPM_P1;HPM_P2
2024/01/23 00:01:16;;;;;;;11.30;2.78;;;10.30;72.90;;;;;;5094995;28;20102;-72
2024/01/23 00:03:41;;;;;;;13.60;3.50;;;10.30;72.80;;;;;;5095420;28;20028;-72
2024/01/23 00:06:07;;;;;;;12.70;2.33;;;10.30;72.70;;;;;;5093854;28;20505;-72
2024/01/23 00:08:33;;;;;;;11.45;2.90;;;10.30;72.70;;;;;;5093932;28;20071;-72
2024/01/23 00:10:59;;;;;;;15.15;2.42;;;10.30;72.60;;;;;;5093329;28;20039;-72
2024/01/23 00:13:24;;;;;;;11.48;2.33;;;10.30;73.20;;;;;;5093067;28;20484;-72
2024/01/23 00:15:50;;;;;;;10.45;2.30;;;10.30;72.50;;;;;;5092607;28;20093;-72
2024/01/23 00:18:16;;;;;;;12.57;3.22;;;10.20;72.50;;;;;;5094295;28;20395;-72
2024/01/23 00:20:42;;;;;;;14.90;3.03;;;10.20;72.50;;;;;;5093261;28;20085;-72
2024/01/23 00:23:08;;;;;;;13.57;2.55;;;10.30;72.60;;;;;;5101958;28;20028;-72
2024/01/23 00:25:34;;;;;;;14.30;3.42;;;10.20;72.50;;;;;;5093773;28;20024;-72
2024/01/23 00:28:00;;;;;;;13.32;2.95;;;10.30;72.50;;;;;;5093787;28;20322;-72
2024/01/23 00:30:25;;;;;;;17.45;3.72;;;10.20;72.50;;;;;;5093178;28;20047;-72
2024/01/23 00:32:51;;;;;;;16.13;2.70;;;10.30;72.50;;;;;;5092807;28;21226;-72
2024/01/23 00:35:17;;;;;;;15.55;3.25;;;10.30;72.50;;;;;;5092511;28;20028;-72
2024/01/23 00:37:43;;;;;;;16.15;3.58;;;10.20;72.50;;;;;;5103880;28;20024;-72
2024/01/23 00:40:12;;;;;;;15.35;3.13;;;10.20;72.50;;;;;;5094059;28;20444;-72
2024/01/23 00:42:37;;;;;;;12.88;3.28;;;10.20;72.50;;;;;;5093836;28;20108;-72
2024/01/23 00:45:03;;;;;;;18.02;2.80;;;10.20;72.60;;;;;;5092294;28;20552;-72
2024/01/23 00:47:30;;;;;;;12.50;3.85;;;10.20;72.60;;;;;;5091639;28;20388;-72
2024/01/23 00:49:57;;;;;;;13.80;3.40;;;10.20;72.60;;;;;;5093661;28;20028;-72
2024/01/23 00:52:22;;;;;;;12.77;3.28;;;10.20;72.60;;;;;;5093720;28;20031;-72
2024/01/23 00:54:48;;;;;;;12.40;2.75;;;10.10;72.60;;;;;;5092640;28;20028;-72
2024/01/23 00:57:14;;;;;;;14.13;3.65;;;10.10;72.60;;;;;;5102164;28;20115;-72
2024/01/23 00:59:40;;;;;;;12.38;2.75;;;10.10;72.60;;;;;;5092568;28;20019;-72
2024/01/23 01:02:05;;;;;;;15.35;2.72;;;10.10;72.70;;;;;;5092630;28;20477;-72
2024/01/23 01:04:31;;;;;;;19.25;3.10;;;10.10;72.60;;;;;;5091749;28;21073;-72
2024/01/23 01:06:57;;;;;;;12.48;2.80;;;10.10;72.60;;;;;;5093434;28;20020;-72
2024/01/23 01:09:23;;;;;;;13.43;3.90;;;10.10;72.60;;;;;;5092207;28;20028;-72
2024/01/23 01:11:48;;;;;;;14.15;3.05;;;10.10;72.60;;;;;;5093328;28;20028;-72
2024/01/23 01:14:14;;;;;;;12.30;2.60;;;10.10;72.50;;;;;;5092295;28;20107;-72
2024/01/23 01:16:40;;;;;;;12.27;2.97;;;10.10;72.50;;;;;;5094830;28;20028;-72
2024/01/23 01:19:06;;;;;;;12.98;3.17;;;10.10;72.60;;;;;;5094000;28;20081;-70
2024/01/23 01:21:31;;;;;;;16.38;3.40;;;10.10;72.50;;;;;;5094510;28;20024;-70
2024/01/23 01:23:57;;;;;;;14.93;3.15;;;10.10;72.60;;;;;;5094183;28;20364;-71
2024/01/23 01:26:23;;;;;;;14.00;2.88;;;10.10;72.60;;;;;;5093440;28;20028;-71
2024/01/23 01:28:48;;;;;;;16.38;3.58;;;10.10;73.20;;;;;;5098255;28;20032;-71
2024/01/23 01:31:14;;;;;;;14.23;2.67;;;10.10;72.60;;;;;;5094210;28;20039;-71
2024/01/23 01:33:40;;;;;;;15.85;4.45;;;10.10;72.70;;;;;;5091815;28;20126;-70
2024/01/23 01:36:07;;;;;;;11.55;2.58;;;10.10;72.60;;;;;;5091288;28;20089;-71
2024/01/23 01:38:33;;;;;;;13.43;2.97;;;10.10;72.60;;;;;;5092558;28;20066;-71
2024/01/23 01:40:58;;;;;;;12.48;2.80;;;10.10;72.60;;;;;;5091743;28;20457;-70
2024/01/23 01:43:29;;;;;;;10.30;2.67;;;10.10;72.50;;;;;;5093406;28;20131;-70
2024/01/23 01:46:24;;;;;;;10.90;2.50;;;10.10;72.50;;;;;;5093619;28;20027;-70
2024/01/23 01:48:51;;;;;;;15.68;3.28;;;10.10;72.40;;;;;;5092612;28;20028;-70
2024/01/23 01:51:20;;;;;;;16.55;3.67;;;10.00;72.40;;;;;;5091598;28;20452;-70
2024/01/23 01:53:46;;;;;;;8.70;3.22;;;10.00;72.40;;;;;;5091311;28;20048;-70
2024/01/23 01:56:12;;;;;;;13.32;2.92;;;10.00;72.40;;;;;;5083570;28;20024;-70
2024/01/23 01:58:40;;;;;;;12.05;2.83;;;10.00;72.30;;;;;;5092749;28;20321;-70
2024/01/23 02:01:05;;;;;;;10.55;2.97;;;9.90;72.20;;;;;;5091601;28;20043;-70
2024/01/23 02:03:31;;;;;;;12.40;2.75;;;10.00;72.30;;;;;;5093214;28;20437;-70
2024/01/23 02:05:59;;;;;;;16.05;3.10;;;9.90;72.10;;;;;;5092635;28;20027;-70
2024/01/23 02:08:24;;;;;;;11.57;2.85;;;9.90;72.10;;;;;;5093365;28;20028;-71
2024/01/23 02:10:51;;;;;;;17.83;4.00;;;9.90;72.20;;;;;;5092989;28;20024;-70
2024/01/23 02:13:16;;;;;;;12.82;2.83;;;9.90;72.10;;;;;;5093318;28;20027;-70
2024/01/23 02:15:42;;;;;;;12.07;3.15;;;9.80;72.00;;;;;;5093379;28;20317;-70
2024/01/23 02:18:08;;;;;;;12.88;2.90;;;9.80;72.10;;;;;;5093378;28;20436;-70
2024/01/23 02:20:33;;;;;;;15.40;3.10;;;9.80;72.00;;;;;;5092147;28;20445;-70
2024/01/23 02:22:59;;;;;;;14.68;2.80;;;9.80;72.00;;;;;;5092674;28;20035;-70
2024/01/23 02:25:25;;;;;;;12.13;2.97;;;9.70;72.00;;;;;;5092974;28;20027;-70
2024/01/23 02:27:51;;;;;;;12.95;2.40;;;9.70;72.00;;;;;;5091692;28;20031;-70
2024/01/23 02:30:17;;;;;;;14.98;3.05;;;9.70;72.00;;;;;;5093139;28;20016;-70
2024/01/23 02:32:46;;;;;;;13.85;3.03;;;9.70;71.90;;;;;;5092899;28;20023;-71
2024/01/23 02:35:13;;;;;;;15.40;3.65;;;9.70;71.90;;;;;;5099688;28;20024;-71
2024/01/23 02:37:39;;;;;;;12.43;2.42;;;9.60;71.80;;;;;;5090745;28;20036;-70
2024/01/23 02:40:05;;;;;;;16.13;3.38;;;9.60;71.80;;;;;;5091580;28;20028;-70
2024/01/23 02:42:32;;;;;;;12.50;3.08;;;9.60;71.90;;;;;;5073888;28;20060;-70
2024/01/23 02:44:58;;;;;;;16.98;3.38;;;9.60;71.90;;;;;;5091626;28;20130;-70
2024/01/23 02:47:24;;;;;;;12.60;3.40;;;9.50;71.90;;;;;;5090715;28;20115;-70
2024/01/23 02:49:51;;;;;;;12.45;3.22;;;9.50;71.90;;;;;;5090951;28;20020;-70
2024/01/23 02:52:16;;;;;;;13.57;3.05;;;9.50;71.90;;;;;;5090922;28;20031;-70
2024/01/23 02:54:45;;;;;;;13.25;2.47;;;9.50;72.00;;;;;;5073635;28;20050;-71
2024/01/23 02:57:13;;;;;;;14.90;3.30;;;9.50;71.90;;;;;;5099265;28;20022;-70
2024/01/23 02:59:39;;;;;;;12.52;2.85;;;9.50;72.00;;;;;;5073839;28;20038;-70
2024/01/23 03:02:05;;;;;;;15.45;4.35;;;9.50;71.90;;;;;;5091321;28;20107;-71
2024/01/23 03:04:32;;;;;;;14.13;2.83;;;9.50;71.90;;;;;;5091531;28;20330;-70
2024/01/23 03:06:58;;;;;;;13.90;3.40;;;9.50;71.90;;;;;;5093356;28;20043;-70
2024/01/23 03:09:24;;;;;;;17.58;3.90;;;9.50;71.90;;;;;;5094551;28;20241;-70
2024/01/23 03:11:50;;;;;;;12.43;3.17;;;9.50;72.00;;;;;;5095498;28;20090;-70
2024/01/23 03:14:15;;;;;;;14.98;2.83;;;9.50;71.90;;;;;;5095504;28;20068;-70
2024/01/23 03:16:41;;;;;;;13.70;3.15;;;9.50;71.90;;;;;;5096386;28;20039;-70
2024/01/23 03:19:07;;;;;;;12.55;3.05;;;9.60;72.00;;;;;;5095324;28;20052;-71
2024/01/23 03:21:32;;;;;;;11.13;3.10;;;9.60;72.00;;;;;;5095782;28;20417;-70
2024/01/23 03:23:58;;;;;;;19.13;3.67;;;9.60;72.00;;;;;;5094911;28;20088;-70
2024/01/23 03:26:24;;;;;;;14.60;3.05;;;9.60;72.00;;;;;;5096199;28;20077;-70
2024/01/23 03:28:50;;;;;;;13.77;2.75;;;9.60;72.10;;;;;;5096970;28;20020;-70
2024/01/23 03:31:15;;;;;;;15.57;3.42;;;9.60;72.00;;;;;;5095491;28;20031;-70
2024/01/23 03:33:41;;;;;;;12.82;3.67;;;9.60;72.00;;;;;;5094560;28;20020;-70
2024/01/23 03:36:08;;;;;;;16.05;3.92;;;9.60;72.00;;;;;;5096515;28;20474;-70
2024/01/23 03:38:33;;;;;;;13.27;3.50;;;9.60;72.00;;;;;;5094857;28;20036;-70
2024/01/23 03:40:59;;;;;;;21.95;4.57;;;9.60;72.00;;;;;;5095802;28;20043;-70
2024/01/23 03:43:25;;;;;;;12.27;3.13;;;9.60;71.90;;;;;;5095613;28;20039;-70
2024/01/23 03:45:50;;;;;;;16.48;3.33;;;9.60;72.00;;;;;;5092659;28;20028;-70
2024/01/23 03:48:18;;;;;;;14.07;3.20;;;9.60;72.10;;;;;;5095916;28;20119;-70
2024/01/23 03:50:44;;;;;;;15.48;3.63;;;9.60;72.10;;;;;;5095999;28;20066;-70
2024/01/23 03:53:10;;;;;;;14.32;4.28;;;9.60;72.10;;;;;;5095343;28;20047;-70
2024/01/23 03:55:36;;;;;;;16.55;3.25;;;9.50;72.00;;;;;;5092760;28;20035;-70
2024/01/23 03:58:02;;;;;;;11.80;3.55;;;9.50;72.10;;;;;;5094743;28;20032;-70
2024/01/23 04:00:28;;;;;;;12.50;3.17;;;9.50;72.10;;;;;;5094405;28;20046;-70
2024/01/23 04:02:55;;;;;;;13.38;3.10;;;9.50;72.10;;;;;;5095087;28;20090;-70
2024/01/23 04:05:20;;;;;;;12.38;2.70;;;9.50;72.00;;;;;;5094164;28;20040;-70
2024/01/23 04:07:49;;;;;;;15.25;4.15;;;9.50;72.10;;;;;;5095620;28;20043;-70
2024/01/23 04:10:15;;;;;;;14.10;3.25;;;9.50;72.10;;;;;;5095217;28;20020;-70
2024/01/23 04:12:41;;;;;;;17.33;4.30;;;9.50;72.10;;;;;;5094592;28;21246;-71
2024/01/23 04:15:07;;;;;;;14.23;3.10;;;9.50;72.00;;;;;;5095013;28;20043;-70
2024/01/23 04:17:34;;;;;;;17.85;3.42;;;9.50;72.00;;;;;;5095588;28;20491;-70
2024/01/23 04:19:59;;;;;;;14.13;3.28;;;9.50;72.00;;;;;;5094272;28;20024;-70
2024/01/23 04:22:26;;;;;;;15.80;2.78;;;9.50;72.10;;;;;;5094902;28;20035;-70
2024/01/23 04:24:51;;;;;;;16.20;3.15;;;9.50;72.00;;;;;;5104423;28;20080;-70
2024/01/23 04:27:17;;;;;;;15.10;2.55;;;9.50;72.00;;;;;;5094102;28;20111;-70
2024/01/23 04:29:43;;;;;;;12.77;2.90;;;9.50;72.00;;;;;;5110641;28;20032;-71
2024/01/23 04:32:09;;;;;;;15.32;3.60;;;9.50;71.90;;;;;;5095486;28;20027;-71
2024/01/23 04:34:34;;;;;;;14.15;3.28;;;9.50;71.90;;;;;;5095775;28;20185;-70
2024/01/23 04:37:00;;;;;;;14.00;2.88;;;9.50;72.00;;;;;;5095760;28;20030;-71
2024/01/23 04:39:26;;;;;;;13.15;3.17;;;9.50;72.00;;;;;;5095600;28;20020;-71
2024/01/23 04:41:51;;;;;;;12.25;2.35;;;9.50;72.00;;;;;;5095609;28;20028;-71
2024/01/23 04:44:17;;;;;;;13.10;2.78;;;9.50;71.90;;;;;;5094673;28;20055;-71
2024/01/23 04:46:45;;;;;;;14.55;3.30;;;9.50;71.90;;;;;;5092289;28;20024;-70
2024/01/23 04:49:11;;;;;;;14.95;3.25;;;9.40;71.80;;;;;;5094451;28;20051;-71
2024/01/23 04:51:36;;;;;;;15.18;4.15;;;9.40;71.90;;;;;;5095423;28;20048;-70
2024/01/23 04:54:02;;;;;;;13.50;3.50;;;9.50;72.00;;;;;;5095416;28;20553;-71
2024/01/23 04:56:28;;;;;;;14.45;2.78;;;9.40;71.90;;;;;;5094696;28;20363;-70
2024/01/23 04:58:54;;;;;;;13.52;3.80;;;9.40;71.90;;;;;;5098936;28;20047;-71
2024/01/23 05:01:20;;;;;;;14.48;2.97;;;9.40;71.80;;;;;;5093869;28;20059;-71
2024/01/23 05:03:46;;;;;;;14.57;3.42;;;9.50;71.90;;;;;;5094511;28;20020;-72
2024/01/23 05:06:12;;;;;;;17.65;3.78;;;9.40;71.80;;;;;;5094216;28;20348;-73
2024/01/23 05:08:38;;;;;;;13.80;3.08;;;9.40;71.80;;;;;;5094098;28;20035;-73
2024/01/23 05:11:03;;;;;;;12.63;3.40;;;9.40;71.80;;;;;;5094716;28;20024;-73
2024/01/23 05:13:29;;;;;;;12.30;3.08;;;9.40;71.80;;;;;;5094313;28;20024;-73
2024/01/23 05:15:55;;;;;;;15.52;2.63;;;9.40;71.70;;;;;;5093469;28;20047;-73
2024/01/23 05:18:21;;;;;;;11.70;2.17;;;9.40;71.70;;;;;;5093764;28;20092;-73
2024/01/23 05:20:46;;;;;;;15.40;2.97;;;9.40;71.70;;;;;;5093864;28;20066;-73
2024/01/23 05:23:12;;;;;;;9.45;2.50;;;9.40;71.60;;;;;;5092781;28;20059;-73
2024/01/23 05:25:38;;;;;;;9.30;2.40;;;9.40;71.50;;;;;;5090811;28;20441;-73
2024/01/23 05:28:04;;;;;;;14.40;2.45;;;9.40;71.40;;;;;;5090315;28;20023;-73
2024/01/23 05:30:32;;;;;;;11.60;3.38;;;9.50;71.50;;;;;;5090955;28;20016;-73
2024/01/23 05:32:58;;;;;;;13.77;2.90;;;9.40;71.40;;;;;;5091130;28;20059;-73
2024/01/23 05:35:23;;;;;;;13.93;3.80;;;9.40;71.40;;;;;;5092754;28;20060;-73
2024/01/23 05:37:49;;;;;;;11.23;2.95;;;9.40;71.40;;;;;;5092601;28;20119;-73
2024/01/23 05:40:15;;;;;;;14.05;3.75;;;9.40;71.40;;;;;;5093585;28;20091;-73
2024/01/23 05:42:41;;;;;;;11.13;2.95;;;9.40;71.40;;;;;;5092149;28;20040;-73
2024/01/23 05:45:07;;;;;;;16.65;3.40;;;9.40;71.40;;;;;;5087529;28;20042;-73
2024/01/23 05:47:33;;;;;;;17.63;3.70;;;9.40;71.40;;;;;;5088094;28;20088;-73
2024/01/23 05:50:00;;;;;;;15.43;3.97;;;9.40;71.30;;;;;;5088852;28;20456;-73
2024/01/23 05:52:26;;;;;;;13.23;3.15;;;9.40;71.30;;;;;;5085823;28;20042;-73
2024/01/23 05:54:52;;;;;;;17.70;4.03;;;9.40;71.20;;;;;;5085162;28;20035;-71
2024/01/23 05:57:18;;;;;;;10.60;2.53;;;9.40;71.10;;;;;;5089021;28;20027;-70
2024/01/23 05:59:43;;;;;;;13.07;3.00;;;9.40;71.00;;;;;;5082667;28;20044;-70
2024/01/23 06:02:09;;;;;;;14.20;3.20;;;9.40;70.90;;;;;;5087729;28;20055;-70
2024/01/23 06:04:36;;;;;;;15.90;3.58;;;9.40;70.90;;;;;;5086536;28;20109;-73
2024/01/23 06:07:02;;;;;;;11.60;2.42;;;9.40;70.90;;;;;;5086559;28;20034;-73
2024/01/23 06:09:29;;;;;;;11.65;2.70;;;9.40;70.90;;;;;;5088798;28;20451;-73
2024/01/23 06:11:55;;;;;;;14.63;2.97;;;9.40;70.90;;;;;;5086543;28;20024;-73
2024/01/23 06:14:21;;;;;;;14.25;2.45;;;9.30;70.90;;;;;;5085962;28;20033;-73
2024/01/23 06:16:47;;;;;;;9.88;2.38;;;9.40;70.90;;;;;;5091576;28;20046;-73
2024/01/23 06:19:12;;;;;;;11.00;2.80;;;9.30;70.80;;;;;;5088616;28;20056;-73
2024/01/23 06:21:38;;;;;;;14.55;3.30;;;9.30;70.80;;;;;;5093139;28;20083;-73
2024/01/23 06:24:05;;;;;;;11.20;2.83;;;9.30;70.80;;;;;;5091992;28;20020;-73
2024/01/23 06:26:32;;;;;;;17.45;3.08;;;9.30;70.90;;;;;;5092056;28;20040;-73
2024/01/23 06:28:58;;;;;;;16.55;3.40;;;9.20;70.90;;;;;;5080862;28;20504;-73
2024/01/23 06:31:27;;;;;;;14.48;3.15;;;9.20;70.90;;;;;;5091060;28;20020;-73
2024/01/23 06:33:53;;;;;;;14.80;3.22;;;9.20;70.90;;;;;;5073605;28;20032;-73
2024/01/23 06:36:20;;;;;;;12.32;3.30;;;9.10;70.90;;;;;;5094365;28;20051;-73
2024/01/23 06:38:45;;;;;;;14.30;3.00;;;9.10;71.00;;;;;;5092893;28;20032;-72
2024/01/23 06:41:11;;;;;;;12.93;3.08;;;9.10;71.00;;;;;;5094318;28;20101;-73
2024/01/23 06:43:37;;;;;;;12.75;2.92;;;9.10;71.00;;;;;;5098199;28;20043;-72
2024/01/23 06:46:03;;;;;;;16.77;4.35;;;9.10;71.00;;;;;;5104552;28;20048;-73
2024/01/23 06:48:31;;;;;;;16.98;2.92;;;9.00;71.10;;;;;;5099217;28;20031;-73
2024/01/23 06:50:57;;;;;;;17.98;3.40;;;9.00;71.10;;;;;;5098575;28;20404;-73
2024/01/23 06:53:22;;;;;;;12.60;3.22;;;9.00;71.20;;;;;;5093316;28;20115;-73
2024/01/23 06:55:48;;;;;;;12.88;3.05;;;9.00;71.30;;;;;;5100382;28;20024;-72
2024/01/23 06:58:14;;;;;;;15.07;3.10;;;9.00;71.30;;;;;;5099880;28;20459;-71
2024/01/23 07:00:40;;;;;;;13.70;2.97;;;8.90;71.30;;;;;;5102822;28;20028;-72
2024/01/23 07:03:08;;;;;;;16.85;3.55;;;8.90;71.40;;;;;;5113836;28;20023;-72
2024/01/23 07:05:35;;;;;;;14.05;2.85;;;8.90;71.50;;;;;;5101249;28;20036;-72
2024/01/23 07:08:02;;;;;;;13.93;3.90;;;8.80;71.50;;;;;;5101186;28;20039;-72
2024/01/23 07:10:31;;;;;;;16.17;3.90;;;8.80;71.50;;;;;;5116988;27;20020;-72
2024/01/23 07:12:57;;;;;;;16.63;3.83;;;8.80;71.50;;;;;;5099782;28;20031;-72
2024/01/23 07:15:23;;;;;;;16.23;3.15;;;8.70;71.60;;;;;;5100895;28;20468;-72
2024/01/23 07:17:51;;;;;;;10.90;2.65;;;8.70;71.60;;;;;;5100556;28;20039;-72
2024/01/23 07:20:16;;;;;;;12.05;3.38;;;8.70;71.70;;;;;;5101073;28;20075;-72
2024/01/23 07:22:42;;;;;;;14.82;3.13;;;8.70;71.80;;;;;;5100849;28;20043;-72
2024/01/23 07:25:09;;;;;;;14.40;3.83;;;8.70;71.90;;;;;;5099834;28;20453;-72
2024/01/23 07:27:35;;;;;;;12.63;3.45;;;8.60;71.90;;;;;;5100068;28;20032;-72
2024/01/23 07:30:01;;;;;;;17.58;3.13;;;8.70;71.90;;;;;;5099733;28;20099;-72
2024/01/23 07:32:26;;;;;;;17.27;3.20;;;8.60;71.80;;;;;;5101834;28;20078;-73
2024/01/23 07:34:52;;;;;;;15.73;3.63;;;8.70;71.90;;;;;;5100706;28;20020;-72
2024/01/23 07:37:18;;;;;;;15.02;3.30;;;8.60;71.90;;;;;;5099584;28;20035;-72
2024/01/23 07:39:44;;;;;;;10.75;3.20;;;8.60;71.90;;;;;;5101013;28;20036;-72
2024/01/23 07:42:11;;;;;;;17.48;4.05;;;8.60;71.90;;;;;;5101111;28;20120;-72
2024/01/23 07:44:39;;;;;;;14.80;2.70;;;8.70;72.00;;;;;;5100459;28;20040;-72
2024/01/23 07:47:05;;;;;;;14.98;3.50;;;8.60;72.00;;;;;;5100620;28;20123;-73
2024/01/23 07:49:31;;;;;;;16.50;3.28;;;8.60;72.00;;;;;;5098718;28;20420;-73
2024/01/23 07:51:57;;;;;;;21.88;3.33;;;8.60;72.00;;;;;;5099471;28;20051;-74
2024/01/23 07:54:23;;;;;;;13.95;3.33;;;8.60;71.90;;;;;;5094758;28;20028;-73
2024/01/23 07:56:52;;;;;;;12.63;3.33;;;8.70;72.00;;;;;;5095628;28;20028;-74
2024/01/23 07:59:18;;;;;;;12.27;2.85;;;8.70;72.00;;;;;;5096683;28;20028;-75
2024/01/23 08:01:44;;;;;;;13.02;2.85;;;8.70;72.00;;;;;;5090081;28;20027;-74
2024/01/23 08:04:13;;;;;;;17.13;3.47;;;8.70;72.00;;;;;;5095054;28;20024;-74
2024/01/23 08:06:38;;;;;;;15.27;3.25;;;8.70;72.00;;;;;;5094887;28;20024;-74
2024/01/23 08:09:07;;;;;;;14.52;3.13;;;8.70;72.00;;;;;;5095506;28;20027;-74
2024/01/23 08:11:33;;;;;;;15.10;3.45;;;8.70;72.00;;;;;;5095999;28;20363;-74
2024/01/23 08:13:59;;;;;;;16.67;3.83;;;8.70;72.00;;;;;;5095006;28;20020;-74
2024/01/23 08:16:27;;;;;;;20.75;3.55;;;8.80;72.00;;;;;;5095258;28;20024;-74
2024/01/23 08:18:54;;;;;;;14.13;3.40;;;8.80;72.00;;;;;;5077344;28;20027;-75
2024/01/23 08:21:20;;;;;;;14.75;3.78;;;8.80;72.10;;;;;;5094602;28;20133;-74
2024/01/23 08:23:46;;;;;;;16.70;3.42;;;8.80;72.00;;;;;;5095331;28;20124;-74
2024/01/23 08:26:12;;;;;;;12.93;2.83;;;8.80;72.00;;;;;;5097226;28;20399;-74
2024/01/23 08:28:41;;;;;;;12.60;3.00;;;8.90;72.10;;;;;;5095281;28;20360;-72
2024/01/23 08:31:07;;;;;;;14.80;4.32;;;8.90;72.70;;;;;;5094080;28;20120;-72
2024/01/23 08:33:34;;;;;;;14.68;3.42;;;8.90;72.00;;;;;;5094717;28;20059;-74
2024/01/23 08:36:03;;;;;;;18.10;4.20;;;9.00;71.90;;;;;;5094564;28;20482;-73
2024/01/23 08:38:30;;;;;;;15.30;3.83;;;9.00;71.80;;;;;;5093196;28;20039;-73
2024/01/23 08:40:56;;;;;;;14.65;3.20;;;9.00;71.70;;;;;;5094169;28;20039;-73
2024/01/23 08:43:22;;;;;;;16.42;4.18;;;9.10;71.60;;;;;;5093544;28;20024;-73
2024/01/23 08:45:48;;;;;;;18.83;3.25;;;9.20;71.50;;;;;;5094535;28;20047;-73
2024/01/23 08:48:14;;;;;;;12.80;3.75;;;9.20;71.40;;;;;;5094034;28;20059;-73
2024/01/23 08:50:40;;;;;;;16.95;3.83;;;9.30;71.30;;;;;;5093602;28;20116;-73
2024/01/23 08:53:06;;;;;;;17.27;3.63;;;9.30;71.30;;;;;;5100652;28;20048;-70
2024/01/23 08:55:32;;;;;;;13.25;3.00;;;9.30;71.20;;;;;;5092847;28;20514;-71
2024/01/23 08:57:58;;;;;;;15.13;3.70;;;9.40;71.20;;;;;;5093467;28;20032;-71
2024/01/23 09:00:24;;;;;;;18.02;3.05;;;9.40;71.20;;;;;;5094411;28;20381;-71
2024/01/23 09:02:49;;;;;;;18.25;3.55;;;9.40;71.00;;;;;;5091992;28;20036;-71
2024/01/23 09:05:15;;;;;;;15.50;4.03;;;9.50;71.10;;;;;;5076034;28;20110;-70
2024/01/23 09:07:41;;;;;;;11.13;3.20;;;9.50;70.90;;;;;;5094347;28;20107;-71
2024/01/23 09:10:07;;;;;;;13.95;2.90;;;9.60;70.80;;;;;;5092883;28;20088;-71
2024/01/23 09:12:36;;;;;;;16.02;4.00;;;9.70;70.50;;;;;;5093749;28;20047;-73
2024/01/23 09:15:05;;;;;;;13.35;4.18;;;9.80;70.30;;;;;;5095332;28;20092;-73
2024/01/23 09:17:31;;;;;;;17.63;4.00;;;10.00;70.10;;;;;;5095181;28;20032;-73
2024/01/23 09:19:57;;;;;;;17.38;3.25;;;10.00;69.90;;;;;;5094345;28;20054;-72
2024/01/23 09:22:23;;;;;;;17.65;3.80;;;10.10;69.80;;;;;;5093930;28;20024;-72
2024/01/23 09:24:48;;;;;;;13.98;4.15;;;10.20;69.60;;;;;;5092993;28;20333;-73
2024/01/23 09:27:15;;;;;;;13.25;3.40;;;10.20;69.40;;;;;;5098909;28;20036;-73
2024/01/23 09:29:41;;;;;;;15.30;3.22;;;10.30;70.00;;;;;;5092869;28;20465;-74
2024/01/23 09:32:07;;;;;;;12.43;3.83;;;10.40;69.10;;;;;;5092906;28;20020;-73
2024/01/23 09:34:36;;;;;;;15.40;2.97;;;10.40;69.00;;;;;;5092762;28;20352;-72
2024/01/23 09:37:02;;;;;;;12.68;2.90;;;10.40;68.80;;;;;;5092514;28;20031;-73
2024/01/23 09:39:28;;;;;;;15.90;3.50;;;10.50;68.80;;;;;;5092345;28;20028;-72
2024/01/23 09:41:59;;;;;;;15.80;4.25;;;10.50;68.80;;;;;;5092381;28;20020;-72
2024/01/23 09:44:26;;;;;;;17.70;3.13;;;10.50;68.60;;;;;;5093406;28;20067;-71
2024/01/23 09:46:52;;;;;;;12.75;2.90;;;10.70;68.60;;;;;;5092270;28;20475;-71
2024/01/23 09:49:18;;;;;;;16.00;3.92;;;10.80;68.40;;;;;;5093319;28;20467;-73
2024/01/23 09:51:47;;;;;;;16.15;3.45;;;10.90;68.20;;;;;;5093581;28;20064;-72
2024/01/23 09:54:16;;;;;;;19.25;3.33;;;11.00;67.90;;;;;;5091699;28;20111;-72
2024/01/23 09:56:43;;;;;;;12.43;2.90;;;11.00;68.30;;;;;;5088812;28;20035;-72
2024/01/23 09:59:12;;;;;;;11.07;3.47;;;11.10;67.60;;;;;;5092282;28;20036;-73
2024/01/23 10:01:38;;;;;;;20.60;4.55;;;11.10;67.50;;;;;;5100379;28;20043;-72
2024/01/23 10:04:05;;;;;;;17.38;3.47;;;11.10;67.50;;;;;;5093633;28;20030;-72
2024/01/23 10:06:32;;;;;;;13.05;3.03;;;11.10;67.50;;;;;;5091606;28;20024;-72
2024/01/23 10:08:58;;;;;;;15.57;3.50;;;11.20;67.40;;;;;;5094123;28;20027;-72
2024/01/23 10:11:28;;;;;;;16.10;3.72;;;11.20;67.20;;;;;;5094055;28;20017;-72
2024/01/23 10:13:56;;;;;;;21.75;3.83;;;11.30;67.20;;;;;;5091840;28;20117;-72
2024/01/23 10:16:22;;;;;;;20.17;3.90;;;11.40;67.00;;;;;;5090405;28;20076;-73
2024/01/23 10:18:50;;;;;;;13.18;2.58;;;11.50;66.80;;;;;;5096562;28;20028;-70
2024/01/23 10:21:22;;;;;;;17.83;4.25;;;11.60;66.60;;;;;;5099785;28;20035;-68
2024/01/23 10:23:52;;;;;;;15.48;4.97;;;11.70;66.30;;;;;;5095348;28;20028;-71
2024/01/23 10:26:18;;;;;;;19.73;3.83;;;11.70;66.20;;;;;;5083730;28;20081;-71
2024/01/23 10:28:45;;;;;;;15.15;4.03;;;11.80;66.00;;;;;;5100614;28;20024;-71
2024/01/23 10:31:12;;;;;;;12.75;3.55;;;11.90;65.90;;;;;;5092966;28;20344;-72
2024/01/23 10:33:38;;;;;;;15.02;3.70;;;12.00;65.80;;;;;;5089679;28;20020;-72
2024/01/23 10:36:08;;;;;;;16.95;3.67;;;12.10;65.60;;;;;;5092349;28;20035;-73
2024/01/23 10:38:37;;;;;;;15.90;3.72;;;12.20;65.30;;;;;;5091045;28;20106;-73
2024/01/23 10:41:04;;;;;;;14.95;4.03;;;12.30;65.10;;;;;;5091432;28;20030;-72
2024/01/23 10:43:31;;;;;;;20.83;4.10;;;12.40;64.90;;;;;;5115853;28;20457;-71
2024/01/23 10:46:04;;;;;;;13.43;3.20;;;12.40;64.70;;;;;;5079346;28;20464;-72
2024/01/23 10:48:30;;;;;;;13.13;3.38;;;12.50;64.50;;;;;;5093340;28;20030;-72
2024/01/23 10:51:03;;;;;;;17.38;3.78;;;12.50;64.40;;;;;;5103774;28;20035;-72
2024/01/23 10:53:47;;;;;;;12.90;3.55;;;12.50;64.30;;;;;;5092583;28;20052;-73
2024/01/23 10:56:15;;;;;;;14.07;3.72;;;12.40;64.50;;;;;;5095911;28;20097;-72
2024/01/23 10:58:44;;;;;;;14.30;3.33;;;12.40;64.40;;;;;;5094224;28;20032;-71
2024/01/23 11:01:12;;;;;;;19.30;3.90;;;12.30;64.40;;;;;;5093047;28;20024;-72
2024/01/23 11:03:38;;;;;;;14.32;3.38;;;12.20;64.40;;;;;;5092805;28;20479;-72
2024/01/23 11:06:22;;;;;;;14.85;3.15;;;12.10;64.70;;;;;;5094321;28;20036;-72
2024/01/23 11:08:53;;;;;;;15.38;3.28;;;12.20;64.70;;;;;;5091675;28;20056;-71
2024/01/23 11:11:49;;;;;;;22.25;3.88;;;12.20;64.60;;;;;;5093395;28;20025;-72
2024/01/23 11:14:25;;;;;;;14.52;4.07;;;12.20;64.40;;;;;;5082580;28;20035;-72
2024/01/23 11:17:05;;;;;;;14.07;3.60;;;12.00;64.60;;;;;;5092796;28;20035;-72
2024/01/23 11:19:45;;;;;;;20.60;5.10;;;11.90;64.90;;;;;;5093888;28;20032;-72
2024/01/23 11:22:11;;;;;;;19.08;3.63;;;11.80;65.00;;;;;;5091710;28;20081;-71
2024/01/23 11:24:42;;;;;;;15.05;3.65;;;11.70;65.20;;;;;;5092962;28;20032;-71
2024/01/23 11:27:07;;;;;;;15.27;3.60;;;11.60;65.30;;;;;;5092356;28;20054;-71
2024/01/23 11:29:34;;;;;;;15.23;3.63;;;11.60;65.50;;;;;;5089065;28;20024;-71
2024/01/23 11:32:01;;;;;;;18.77;4.07;;;11.60;65.50;;;;;;5097330;28;20043;-73
2024/01/23 11:34:27;;;;;;;13.68;4.20;;;11.50;65.60;;;;;;5095859;28;20035;-72
2024/01/23 11:36:53;;;;;;;16.08;3.80;;;11.60;65.60;;;;;;5098024;28;20077;-72
2024/01/23 11:39:25;;;;;;;19.88;3.75;;;11.60;65.30;;;;;;5097133;28;20024;-71
2024/01/23 11:41:52;;;;;;;13.18;3.63;;;11.70;65.30;;;;;;5097346;28;20024;-72
2024/01/23 11:44:19;;;;;;;12.40;3.33;;;11.70;65.40;;;;;;5096599;28;20036;-71
2024/01/23 11:46:49;;;;;;;10.77;3.60;;;11.70;65.30;;;;;;5096771;28;20352;-71
2024/01/23 11:49:18;;;;;;;15.95;4.00;;;11.80;65.30;;;;;;5096465;28;20024;-72
2024/01/23 11:51:44;;;;;;;16.52;4.88;;;11.80;65.20;;;;;;5096385;28;20020;-71
2024/01/23 11:54:11;;;;;;;15.43;3.92;;;11.80;65.80;;;;;;5100374;28;20039;-73
2024/01/23 11:56:38;;;;;;;14.00;4.32;;;11.80;65.10;;;;;;5097245;28;20471;-74
2024/01/23 11:59:05;;;;;;;15.50;4.18;;;11.70;65.20;;;;;;5096318;28;20402;-74
2024/01/23 12:01:32;;;;;;;14.20;3.67;;;11.70;65.90;;;;;;5096937;28;20039;-74
2024/01/23 12:03:58;;;;;;;14.82;3.92;;;11.70;65.30;;;;;;5097232;28;20058;-74
2024/01/23 12:06:28;;;;;;;16.60;3.53;;;11.70;65.30;;;;;;5095835;28;20024;-74
2024/01/23 12:08:54;;;;;;;15.50;3.22;;;11.70;65.30;;;;;;5096210;28;20036;-73
2024/01/23 12:11:20;;;;;;;14.93;3.45;;;11.70;65.20;;;;;;5095964;28;20039;-73
2024/01/23 12:13:50;;;;;;;16.00;4.25;;;11.60;65.20;;;;;;5104202;28;20028;-73
2024/01/23 12:16:17;;;;;;;15.32;3.75;;;11.60;65.10;;;;;;5098539;28;20469;-73
2024/01/23 12:18:45;;;;;;;19.02;4.20;;;11.60;65.10;;;;;;5095796;28;20024;-74
2024/01/23 12:21:11;;;;;;;16.70;4.60;;;11.50;65.10;;;;;;5109847;28;20091;-72
2024/01/23 12:23:37;;;;;;;19.63;4.75;;;11.50;65.10;;;;;;5095036;28;20484;-72
2024/01/23 12:26:04;;;;;;;13.45;4.00;;;11.50;65.20;;;;;;5098769;28;20127;-73
2024/01/23 12:28:32;;;;;;;14.23;3.45;;;11.50;65.20;;;;;;5091403;28;20035;-73
2024/01/23 12:30:58;;;;;;;14.30;3.22;;;11.50;65.10;;;;;;5103443;28;20444;-73
2024/01/23 12:33:26;;;;;;;15.82;4.15;;;11.50;65.10;;;;;;5094760;28;20024;-72
2024/01/23 12:35:52;;;;;;;12.93;3.47;;;11.50;65.10;;;;;;5094234;28;20051;-72
2024/01/23 12:38:20;;;;;;;11.40;3.55;;;11.50;65.00;;;;;;5095398;28;20024;-72
2024/01/23 12:40:47;;;;;;;11.35;3.30;;;11.50;64.90;;;;;;5098545;28;20039;-72